NCAR-RAP Real-Time Weather Data

Output produced by METARs form (23 January 2018  15:47 UTC)
found at http://weather.rap.ucar.edu/surface/
 
RJSN 231200Z 32022KT 9999 -SHSN FEW010 SCT020 BKN030 01/M04 Q1008
RJSN 231100Z 32025KT 9999 -SHSN FEW010 SCT020 BKN030 01/M02 Q1008
RJSN 231000Z 32028G38KT 9999 -SHSN FEW008 SCT020 BKN030 02/M03 Q1006
RJSN 230941Z 32026KT 6000 -SHSN FEW005 SCT008 BKN010 02/M01 Q1006 RMK 1ST005 3CU008 5CU010 A2972
RJSN 230931Z 32026KT 2500 -SHSN FEW005 BKN008 BKN010 01/M01 Q1006 RMK 1ST005 5CU008 7CU010 A2972
RJSN 230917Z 32023G33KT 1000 R28/2000N -SHSNRA VV006 01/00 Q1006 RMK A2972
RJSN 230915Z 32022KT 1200 R28/2000N -SHSNRA FEW004 SCT006 BKN008 01/00 Q1006 RMK 1ST004 3CU006 7CU008 A2971
RJSN 230910Z 33022KT 2000 -SHSNRA FEW005 BKN008 BKN010 01/M00 Q1006 RMK 2ST005 5CU008 7CU010 A2972
RJSN 230903Z 32020G31KT 3000 -SHSNRA FEW005 BKN008 BKN010 02/01 Q1005 RMK 1ST005 5CU008 7CU010 A2970
RJSN 230900Z 32019KT 4500 -SHRASNGS FEW005 BKN008 BKN010 FEW015CB 02/00 Q1005
RJSN 230845Z 29012KT 4000 -SHRASNGS FEW005 BKN008 BKN010 01/00 Q1006 RMK 1ST005 5CU008 7CU010 A2971 SMALL HAIL
RJSN 230830Z 29013KT 9999 -SHRASN FEW005 SCT008 BKN010 02/01 Q1006 RMK 1ST005 3CU008 7CU010 A2971
RJSN 230800Z 28017KT 6000 -SHSN FEW004 BKN008 BKN010 01/01 Q1005
RJSN 230746Z 26018KT 0800 R28/P2000N SHRASN VV005 01/00 Q1005 RMK A2970
RJSN 230744Z 26018KT 2000 -SHRASN FEW004 BKN008 BKN010 01/01 Q1005 RMK 1ST004 5CU008 7CU010 A2970
RJSN 230737Z 27019KT 4500 -SHRASN FEW005 BKN008 BKN010 01/01 Q1005 RMK 1ST005 5CU008 7CU010 A2970 P/RR
RJSN 230718Z 30026G37KT 2000 -SHRASN FEW005 BKN008 BKN010 02/01 Q1005 RMK 1ST005 5CU008 7CU010 A2969 P/RR
RJSN 230708Z 31026G36KT 3000 -SHRASN FEW005 SCT008 BKN010 FEW015CB 03/02 Q1004 RMK 1ST005 3CU008 6CU010 1CB015 A2966 CB 10KM SE MOV E
RJSN 230704Z 31028KT 4500 -SHRASN FEW005 SCT008 BKN010 FEW015CB 02/01 Q1004 RMK 1ST005 3CU008 6CU010 2CB015 A2966 CB 5KM S MOV E
RJSN 230700Z 31028KT 5000 -TSRASNGS FEW005 SCT008 BKN010 FEW015CB 02/01 Q1004
RJSN 230623Z 26022G33KT 9999 -SHRASN FEW005 SCT008 BKN020 03/01 Q1003 RMK 1ST005 3CU008 7CU020 A2964
RJSN 230618Z 27022KT 9999 -SHRA FEW005 SCT008 BKN020 03/01 Q1003 RMK 1ST005 3CU008 6CU020 A2964
RJSN 230602Z 28028G38KT 6000 -SHRASN FEW003 BKN008 BKN010 02/01 Q1003 RMK 1ST003 5CU008 7CU010 A2964
RJSN 230600Z 28030KT 4000 -SHRASN FEW003 BKN008 BKN010 02/01 Q1003
RJSN 230543Z 28030G42KT 2000 -SHRASN FEW005 BKN008 BKN010 02/01 Q1003 RMK 1ST005 5CU008 7CU010 A2963
RJSN 230531Z 26030G42KT 3000 R28/2000N -SHRASN FEW005 SCT008 BKN010 02/01 Q1003 RMK 1ST005 3CU008 6CU010 A2962
RJSN 230521Z 26031G44KT 4500 -SHRASNGS FEW005 BKN010 BKN020 03/01 Q1002 RMK 1ST005 5CU010 7CU020 A2961 P/RR SMALL HAIL
RJSN 230512Z 25024G36KT 4500 -SHRASN FEW005 BKN010 BKN020 03/01 Q1002 RMK 1ST005 5CU010 7CU020 A2961 P/RR
RJSN 230510Z 24023KT 5000 -SHRASN FEW005 BKN010 BKN020 03/01 Q1002 RMK 1ST005 5CU010 7CU020 A2960 P/RR
RJSN 230505Z 26033G50KT 5000 -SHRASN FEW005 BKN010 BKN020 03/00 Q1002 RMK 1ST005 5CU010 7CU020 A2960 P/RR
RJSN 230500Z 26031G48KT 5000 -SHRAGS FEW005 BKN010 BKN020 04/00 Q1002
RJSN 230447Z 25028G40KT 8000 -SHRA FEW010 SCT020 BKN030 05/M02 Q1001 RMK 1CU010 3CU020 6CU030 A2957
RJSN 230444Z 26024KT 8000 -SHRA FEW010 SCT020 BKN030 06/M01 Q1001 RMK 1CU010 3CU020 6CU030 A2957 P/RR
RJSN 230402Z 26036G46KT 9999 FEW010 FEW015CB SCT020 BKN030 07/00 Q1000 RMK 1CU010 1CB015 3CU020 5CU030 A2953 CB 30KM SW MOV NE
RJSN 230400Z 26036KT 9999 FEW010 FEW015CB SCT020 BKN030 07/01 Q1000
RJSN 230345Z 25032G49KT 8000 -SHRA FEW010 FEW015CB SCT020 BKN030 06/M00 Q1000 RMK 1CU010 1CB015 3CU020 5CU030 A2953 CB 20KM SE MOV NE
RJSN 230326Z 25025G39KT 8000 -SHRA FEW010 FEW015CB SCT020 BKN030 05/01 Q1000 RMK 1CU010 1CB015 3CU020 5CU030 A2954 CB 15KM SE MOV NE
RJSN 230313Z 25026G41KT 4000 -TSRA FEW010 FEW015CB SCT020 BKN025 05/02 Q1000 RMK 1CU010 2CB015 4CU020 6CU025 A2954 FBL TS 10KM SE MOV NE
RJSN 230310Z 25028G43KT 4000 -SHRA FEW010 SCT015 BKN020 05/02 Q1000 RMK 1CU010 4CU015 6CU020 A2954
RJSN 230300Z 25038G51KT 4000 -SHRA FEW010 SCT015 BKN025 04/01 Q1000
RJSN 230245Z 25029G40KT 5000 -SHRA FEW010 SCT015 BKN025 05/03 Q1000 RMK 1CU010 4CU015 6CU025 A2955
RJSN 230243Z 25031KT 4000 -SHRA FEW010 SCT015 BKN025 05/03 Q1000 RMK 1CU010 4CU015 6CU025 A2954
RJSN 230240Z 26014G32KT 220V300 4000 -SHRA FEW010 SCT015 BKN025 05/03 Q1000 RMK 1CU010 4CU015 6CU025 A2955
RJSN 230231Z 19015KT 170V250 9999 VCSH FEW010 SCT015 BKN025 03/02 Q1000 WS R28 RMK 1CU010 3CU015 5CU025 A2954 P/FR
RJSN 230211Z 21025G40KT 170V250 8000 -SHRA FEW010 SCT015 BKN025 03/02 Q1000 RMK 1CU010 3CU015 5CU025 A2955
RJSN 230205Z 23029G40KT 180V250 4000 -SHRASN FEW010 FEW015CB BKN020 BKN030 03/02 Q1001 RMK 2CU010 2CB015 5CU020 7CU030 A2959 CB 5KM NW MOV NE
RJSN 230202Z 21019G36KT 4000 -SHRASN FEW010 FEW015CB BKN020 BKN030 03/02 Q1002 RMK 2CU010 2CB015 5CU020 7CU030 A2959 CB 5KM W MOV NE
RJSN 230200Z 20013KT 4000 -SHRASN FEW010 FEW015CB BKN020 BKN030 03/02 Q1002
RJSN 230145Z 18012G22KT 6000 SHRASN FEW010 FEW015CB BKN020 BKN030 02/02 Q1001 RMK 1CU010 2CB015 5CU020 7CU030 A2956 CB 5KM W MOV NE
RJSN 230138Z 18012KT 3000 SHRASNGS FEW010 FEW015CB BKN020 BKN030 03/02 Q1001 RMK 1CU010 1CB015 5CU020 7CU030 A2957 CB 10KM SW MOV NE SMALL HAIL
RJSN 230135Z 18011KT 3000 SHRA FEW010 FEW015CB BKN020 BKN030 03/02 Q1001 RMK 1CU010 1CB015 5CU020 7CU030 A2958 CB 10KM N MOV NE
RJSN 230100Z 18015KT 9999 VCSH FEW010 FEW015CB SCT020 BKN030 03/01 Q1001
RJSN 230000Z 19013KT 6000 -SHRASN FEW010 SCT015 BKN025 02/01 Q1002
RJSN 222300Z 17008KT 9999 FEW010 SCT020 BKN035 02/01 Q1002
RJSN 222229Z 16009KT 6000 -SHRA FEW010 FEW015CB BKN020 BKN030 02/01 Q1003 RMK 2CU010 1CB015 5CU020 6CU030 A2962 CB 10KM W MOV NE
RJSN 222221Z 16009KT 3000 -SHRA BR FEW010 FEW015CB BKN020 BKN030 02/01 Q1003 RMK 2CU010 1CB015 5CU020 6CU030 A2963 CB 15KM W MOV NE
RJSN 222215Z 16008KT 6000 -SHRA FEW010 FEW015CB SCT020 BKN030 02/01 Q1003 RMK 1CU010 1CB015 4CU020 6CU030 A2963 CB 20KM SW MOV NE
RJSN 222210Z 17008KT 5000 SHRA FEW010 FEW015CB SCT020 BKN030 02/01 Q1003 RMK 1CU010 1CB015 4CU020 6CU030 A2963 CB 20KM SW MOV NE
RJSN 222200Z 18010KT 6000 -SHRA FEW015 SCT020 BKN030 02/01 Q1003
RJSN 222110Z 16011KT 9999 FEW015 SCT020 BKN030 02/01 Q1003 RMK 1CU015 3CU020 6CU030 A2964
RJSN 221200Z 12005KT 0900 R28/P2000N SN BR VV005 M01/M01 Q1011
RJSN 221147Z 11006KT 1400 R28/P2000N -SN BR FEW002 SCT004 BKN008 M01/M01 Q1011 RMK 1ST002 3ST004 6ST008 A2986
RJSN 221117Z 09006KT 2000 -SN BR FEW002 BKN004 BKN010 M00/M00 Q1011 RMK 2ST002 5ST004 7ST010 A2988
RJSN 221100Z 09004KT 2000 -SN BR FEW003 SCT008 BKN010 M00/M00 Q1012
RJSN 221031Z 11005KT 2500 -SN BR FEW005 SCT008 BKN010 M00/M00 Q1013 RMK 1ST005 3ST008 5ST010 A2991
RJSN 221000Z 10006KT 2000 -SN BR FEW005 SCT008 BKN010 M00/M00 Q1013
RJSN 220944Z 09008KT 2000 -SN BR FEW005 SCT008 BKN010 M00/M00 Q1014 RMK 1ST005 4ST008 6ST010 A2995
RJSN 220929Z 09008KT 1400 R28/P2000N -SN BR VV008 M00/M00 Q1014 RMK A2995
RJSN 220900Z 08008KT 2000 -SN BR FEW003 SCT008 BKN010 M00/M00 Q1014
RJSN 220827Z 08005KT 3500 -SN BR FEW008 SCT010 BKN020 00/00 Q1014 RMK 1ST008 3ST010 6SC020 A2996
RJSN 220812Z 09006KT 2500 -SN BR FEW002 SCT008 BKN010 M00/M00 Q1014 RMK 1ST002 3ST008 5ST010 A2996
RJSN 220800Z 10005KT 2000 -SN BR FEW002 SCT005 BKN008 00/M00 Q1014
RJSN 220740Z 12007KT 0800 R28/P2000N SN BR VV005 00/M00 Q1014 RMK A2996
RJSN 220722Z 13005KT 1400 R28/P2000N -SN BR VV008 01/M01 Q1014 RMK A2996
RJSN 220714Z 12004KT 080V160 2000 -SN BR FEW008 BKN010 BKN020 01/M02 Q1014 RMK 1ST008 5ST010 7SC020 A2997
RJSN 220710Z 13004KT 100V160 3000 -SN BR FEW008 SCT010 BKN020 01/M02 Q1014 RMK 1ST008 4ST010 7SC020 A2996
RJSN 220706Z 14003KT 4000 -SN BR FEW008 SCT010 BKN020 02/M02 Q1014 RMK 1ST008 4ST010 7SC020 A2996
RJSN 220700Z 13003KT 100V160 6000 -SN FEW010 BKN020 BKN030 02/M03 Q1014
RJSN 220600Z VRB01KT 9999 FEW010 SCT030 BKN050 02/M02 Q1014
RJSN 220500Z 10007KT 9999 FEW030 BKN070 OVC100 02/M02 Q1014
RJSN 220400Z 08006KT 9999 FEW030 SCT070 OVC100 02/M03 Q1016
RJSN 220300Z 10004KT 9999 FEW030 OVC100 01/M04 Q1017
RJSN 220200Z 12004KT 9999 FEW030 SCT100 BKN/// 01/M03 Q1019
RJSN 220100Z 11007KT 9999 FEW030 SCT120 BKN/// 01/M05 Q1021
RJSN 220000Z 09008KT 9999 FEW030 SCT120 BKN/// 00/M05 Q1022
RJSN 212300Z 09007KT 9999 FEW020 SCT040 BKN120 M01/M03 Q1022
RJSN 212200Z 08005KT 9999 -SHSN FEW020 SCT030 BKN050 M01/M03 Q1022
RJSN 212110Z 17004KT 9999 FEW020 SCT030 BKN060 M01/M02 Q1022 RMK 1CU020 3CU030 6SC060 A3020
RJSN 211200Z 32006KT 9999 -SHSN FEW015 SCT025 BKN040 02/M07 Q1024
RJSN 211100Z 33015KT 9999 FEW015 SCT025 BKN040 02/M06 Q1024
RJSN 211000Z 36017KT 9999 FEW015 SCT020 BKN030 02/M03 Q1022
RJSN 210900Z 35021KT 6000 -SHSN FEW010 SCT020 BKN030 02/M01 Q1021
RJSN 210821Z 35020G33KT 5000 -SHSN FEW008 SCT015 BKN020 03/00 Q1021 RMK 1CU008 4CU015 6CU020 A3016
RJSN 210813Z 34020KT 5000 -SHSN FEW008 SCT015 BKN020 02/00 Q1021 RMK 1CU008 4CU015 6CU020 A3016
RJSN 210810Z 34021KT 3500 -SHSN FEW008 BKN015 BKN020 02/00 Q1021 RMK 2CU008 5CU015 7CU020 A3016
RJSN 210800Z 34022KT 1500 R28/P2000N -SHSN FEW008 BKN015 BKN020 02/00 Q1021
RJSN 210745Z 34022KT 3000 -SHSN FEW010 BKN015 BKN020 02/00 Q1020 RMK 1CU010 5CU015 7CU020 A3014
RJSN 210712Z 35022KT 4000 -SHSN FEW010 BKN015 BKN020 02/01 Q1020 RMK 1CU010 5CU015 7CU020 A3012
RJSN 210700Z 35023KT 6000 -SHSN FEW010 BKN015 BKN020 03/01 Q1019
RJSN 210634Z 34025KT 6000 -SHSN FEW010 BKN015 BKN020 03/01 Q1019 RMK 1CU010 5CU015 6CU020 A3009
RJSN 210626Z 34023KT 4000 -SHSN FEW010 BKN015 BKN020 03/01 Q1018 RMK 1CU010 5CU015 6CU020 A3008
RJSN 210600Z 34024KT 8000 -SHRA FEW010 SCT015 BKN020 03/02 Q1018
RJSN 210500Z 35027KT 6000 -SHRA FEW010 BKN015 BKN020 04/03 Q1016
RJSN 210421Z 33018G28KT 9999 FEW010 BKN015 BKN020 05/04 Q1014 RMK 2CU010 5CU015 7CU020 A2996
RJSN 210411Z 33012KT 9999 FEW010 SCT020 BKN030 06/04 Q1015 RMK 1CU010 4CU020 7CU030 A2997
RJSN 210400Z 25012KT 9999 -SHRA FEW010 SCT020 BKN030 05/04 Q1014